AUA911F LOWW-UDYZ
Flight info
| Callsign | AUA911F |
|---|---|
| Flight time | N/A |
| Altitude | 37000 |
| Route | ADAMA DCT VEDER DCT ALAMU DCT EPARI DCT BUDOP DCT UDROS UM859 KARDE UL851 TBN UP146 YAVUZ UN161 INDUR |
| Aircraft | A321/M-SDE3FGHIRWY/LB1 |
Departure
| Time | 2026-04-30 21:01 |
|---|---|
| Airport | Vienna International Airport (LOWW) |
Arrival
| Time | N/A |
|---|---|
| Airport | Zvartnots International Airport (UDYZ) |
| Time | Latitude | Longitude | Altitude | Speed | Heading |
|---|---|---|---|---|---|
| 2026-04-30 20:27 | 48.11936 | 16.56662 | 610 ft | 0 kts | 206° |
| 2026-04-30 20:46 | 48.11973 | 16.56709 | 623 ft | 3 kts | 235° |
| 2026-04-30 20:46 | 48.11984 | 16.56731 | 617 ft | 3 kts | 208° |
| 2026-04-30 20:47 | 48.11983 | 16.56751 | 618 ft | 0 kts | 116° |
| 2026-04-30 20:49 | 48.11972 | 16.56784 | 620 ft | 10 kts | 116° |
| 2026-04-30 20:50 | 48.11873 | 16.57090 | 616 ft | 17 kts | 112° |
| 2026-04-30 20:50 | 48.11842 | 16.57253 | 614 ft | 16 kts | 111° |
| 2026-04-30 20:50 | 48.11851 | 16.57308 | 622 ft | 1 kts | 77° |
| 2026-04-30 20:50 | 48.11845 | 16.57317 | 620 ft | 6 kts | 124° |
| 2026-04-30 20:51 | 48.11781 | 16.57472 | 617 ft | 27 kts | 142° |
| 2026-04-30 20:51 | 48.11454 | 16.57622 | 616 ft | 24 kts | 163° |
| 2026-04-30 20:51 | 48.11297 | 16.57688 | 619 ft | 22 kts | 163° |
| 2026-04-30 20:52 | 48.11153 | 16.57748 | 620 ft | 21 kts | 164° |
| 2026-04-30 20:52 | 48.11014 | 16.57808 | 617 ft | 20 kts | 164° |
| 2026-04-30 20:52 | 48.10750 | 16.57919 | 619 ft | 19 kts | 165° |
| 2026-04-30 20:53 | 48.10626 | 16.57972 | 614 ft | 18 kts | 163° |
| 2026-04-30 20:53 | 48.10507 | 16.58022 | 614 ft | 17 kts | 164° |
| 2026-04-30 20:53 | 48.10393 | 16.58069 | 613 ft | 17 kts | 164° |
| 2026-04-30 20:54 | 48.10176 | 16.58161 | 620 ft | 16 kts | 164° |
| 2026-04-30 20:54 | 48.10060 | 16.58211 | 617 ft | 23 kts | 165° |
| 2026-04-30 20:54 | 48.09884 | 16.58285 | 612 ft | 26 kts | 164° |
| 2026-04-30 20:55 | 48.09544 | 16.58430 | 610 ft | 25 kts | 164° |
| 2026-04-30 20:55 | 48.09397 | 16.58491 | 620 ft | 20 kts | 165° |
| 2026-04-30 20:55 | 48.09263 | 16.58547 | 617 ft | 19 kts | 165° |
| 2026-04-30 20:56 | 48.09013 | 16.58653 | 617 ft | 18 kts | 165° |
| 2026-04-30 20:56 | 48.08896 | 16.58702 | 613 ft | 17 kts | 163° |
| 2026-04-30 20:56 | 48.08790 | 16.58927 | 609 ft | 8 kts | 79° |
| 2026-04-30 20:57 | 48.08793 | 16.58942 | 609 ft | 0 kts | 76° |
| 2026-04-30 20:58 | 48.08799 | 16.58971 | 621 ft | 6 kts | 71° |
| 2026-04-30 20:58 | 48.08846 | 16.59065 | 614 ft | 15 kts | 40° |
| 2026-04-30 20:59 | 48.08925 | 16.59107 | 620 ft | 9 kts | 342° |
| 2026-04-30 20:59 | 48.08950 | 16.59097 | 621 ft | 0 kts | 344° |
| 2026-04-30 21:00 | 48.09145 | 16.59014 | 612 ft | 67 kts | 344° |
| 2026-04-30 21:00 | 48.10818 | 16.58306 | 656 ft | 170 kts | 345° |
| 2026-04-30 21:01 | 48.12954 | 16.57554 | 2174 ft | 156 kts | 9° |
| 2026-04-30 21:01 | 48.13890 | 16.58418 | 2451 ft | 174 kts | 57° |
| 2026-04-30 21:01 | 48.14529 | 16.62391 | 2847 ft | 224 kts | 92° |
| 2026-04-30 21:02 | 48.14049 | 16.64740 | 3195 ft | 250 kts | 107° |
| 2026-04-30 21:02 | 48.13464 | 16.67229 | 3952 ft | 255 kts | 104° |
| 2026-04-30 21:02 | 48.12917 | 16.69782 | 4781 ft | 260 kts | 103° |
| 2026-04-30 21:02 | 48.12372 | 16.72383 | 5597 ft | 264 kts | 103° |
| 2026-04-30 21:03 | 48.11816 | 16.75035 | 6440 ft | 268 kts | 104° |
| 2026-04-30 21:03 | 48.11255 | 16.77681 | 7207 ft | 272 kts | 104° |
| 2026-04-30 21:03 | 48.10674 | 16.80383 | 8006 ft | 274 kts | 104° |
| 2026-04-30 21:03 | 48.10082 | 16.83107 | 8801 ft | 276 kts | 104° |
| 2026-04-30 21:04 | 48.09483 | 16.85858 | 9619 ft | 278 kts | 104° |
| 2026-04-30 21:04 | 48.08878 | 16.88628 | 10309 ft | 286 kts | 104° |
| 2026-04-30 21:04 | 48.07556 | 16.94722 | 10787 ft | 323 kts | 105° |
| 2026-04-30 21:05 | 48.06854 | 16.97910 | 11399 ft | 328 kts | 105° |
| 2026-04-30 21:05 | 48.06131 | 17.01159 | 12105 ft | 330 kts | 104° |
| 2026-04-30 21:05 | 48.05404 | 17.04414 | 12828 ft | 332 kts | 104° |
| 2026-04-30 21:05 | 48.04670 | 17.07699 | 13546 ft | 333 kts | 104° |
| 2026-04-30 21:06 | 48.03932 | 17.11008 | 14259 ft | 335 kts | 104° |
| 2026-04-30 21:06 | 48.03204 | 17.14288 | 14861 ft | 338 kts | 103° |
| 2026-04-30 21:06 | 48.02454 | 17.17675 | 15449 ft | 341 kts | 103° |
| 2026-04-30 21:06 | 48.01714 | 17.21016 | 16022 ft | 345 kts | 103° |
| 2026-04-30 21:07 | 48.00952 | 17.24432 | 16601 ft | 348 kts | 103° |
| 2026-04-30 21:07 | 48.00180 | 17.27881 | 17165 ft | 352 kts | 103° |
| 2026-04-30 21:07 | 47.99400 | 17.31366 | 17717 ft | 355 kts | 103° |
| 2026-04-30 21:07 | 47.98611 | 17.34882 | 18264 ft | 359 kts | 103° |
| 2026-04-30 21:08 | 47.97824 | 17.38433 | 18782 ft | 362 kts | 103° |
| 2026-04-30 21:08 | 47.97039 | 17.42020 | 19264 ft | 365 kts | 103° |
| 2026-04-30 21:08 | 47.96252 | 17.45633 | 19766 ft | 367 kts | 102° |
| 2026-04-30 21:08 | 47.95458 | 17.49270 | 20240 ft | 369 kts | 103° |
| 2026-04-30 21:09 | 47.94669 | 17.52887 | 20687 ft | 371 kts | 102° |
| 2026-04-30 21:09 | 47.93866 | 17.56554 | 21157 ft | 373 kts | 103° |
| 2026-04-30 21:09 | 47.93053 | 17.60253 | 21584 ft | 376 kts | 103° |
| 2026-04-30 21:09 | 47.92234 | 17.63968 | 22018 ft | 378 kts | 103° |
| 2026-04-30 21:10 | 47.91408 | 17.67710 | 22451 ft | 380 kts | 103° |
| 2026-04-30 21:10 | 47.90576 | 17.71468 | 22871 ft | 382 kts | 103° |
| 2026-04-30 21:10 | 47.89750 | 17.75200 | 23286 ft | 384 kts | 103° |
| 2026-04-30 21:10 | 47.88909 | 17.78987 | 23683 ft | 387 kts | 103° |
| 2026-04-30 21:11 | 47.88059 | 17.82803 | 24069 ft | 389 kts | 103° |
| 2026-04-30 21:11 | 47.87201 | 17.86643 | 24439 ft | 391 kts | 103° |
| 2026-04-30 21:11 | 47.86335 | 17.90510 | 24802 ft | 393 kts | 103° |
| 2026-04-30 21:11 | 47.85462 | 17.94398 | 25172 ft | 395 kts | 103° |
| 2026-04-30 21:12 | 47.84566 | 17.98242 | 25530 ft | 399 kts | 107° |
| 2026-04-30 21:12 | 47.83414 | 18.02037 | 25878 ft | 403 kts | 109° |
| 2026-04-30 21:12 | 47.82230 | 18.05831 | 26238 ft | 405 kts | 109° |
| 2026-04-30 21:12 | 47.81037 | 18.09647 | 26595 ft | 407 kts | 109° |
| 2026-04-30 21:13 | 47.79849 | 18.13442 | 26936 ft | 409 kts | 109° |
| 2026-04-30 21:13 | 47.78640 | 18.17295 | 27278 ft | 412 kts | 109° |
| 2026-04-30 21:13 | 47.77423 | 18.21161 | 27609 ft | 414 kts | 109° |
| 2026-04-30 21:13 | 47.76195 | 18.25057 | 27934 ft | 416 kts | 109° |
| 2026-04-30 21:14 | 47.74965 | 18.28971 | 28270 ft | 418 kts | 109° |
| 2026-04-30 21:14 | 47.73949 | 18.32994 | 28578 ft | 414 kts | 100° |
| 2026-04-30 21:14 | 47.73372 | 18.37157 | 28889 ft | 411 kts | 92° |
| 2026-04-30 21:14 | 47.73064 | 18.41395 | 29208 ft | 412 kts | 91° |
| 2026-04-30 21:15 | 47.72756 | 18.45592 | 29505 ft | 414 kts | 91° |
| 2026-04-30 21:15 | 47.72435 | 18.49864 | 29815 ft | 417 kts | 92° |
| 2026-04-30 21:15 | 47.72102 | 18.54169 | 30120 ft | 419 kts | 92° |
| 2026-04-30 21:15 | 47.71764 | 18.58490 | 30412 ft | 421 kts | 92° |
| 2026-04-30 21:16 | 47.71423 | 18.62825 | 30635 ft | 423 kts | 92° |
| 2026-04-30 21:16 | 47.71080 | 18.67176 | 30850 ft | 425 kts | 92° |
| 2026-04-30 21:16 | 47.70740 | 18.71499 | 31055 ft | 427 kts | 92° |
| 2026-04-30 21:16 | 47.70394 | 18.75878 | 31270 ft | 429 kts | 92° |
| 2026-04-30 21:17 | 47.70042 | 18.80316 | 31470 ft | 431 kts | 92° |
| 2026-04-30 21:17 | 47.69692 | 18.84720 | 31735 ft | 430 kts | 92° |
| 2026-04-30 21:17 | 47.69336 | 18.89142 | 32010 ft | 430 kts | 92° |
| 2026-04-30 21:17 | 47.68968 | 18.93509 | 32268 ft | 431 kts | 95° |
| 2026-04-30 21:18 | 47.68238 | 18.97912 | 32509 ft | 437 kts | 104° |
| 2026-04-30 21:18 | 47.67045 | 19.02040 | 32758 ft | 444 kts | 113° |
| 2026-04-30 21:18 | 47.65523 | 19.06032 | 33012 ft | 445 kts | 115° |
| 2026-04-30 21:18 | 47.63987 | 19.10040 | 33265 ft | 445 kts | 114° |
| 2026-04-30 21:19 | 47.62974 | 19.12689 | 33430 ft | 445 kts | 114° |
| 2026-04-30 21:19 | 47.61449 | 19.16696 | 33694 ft | 445 kts | 114° |
| 2026-04-30 21:19 | 47.59928 | 19.20701 | 33947 ft | 445 kts | 114° |
| 2026-04-30 21:19 | 47.58406 | 19.24704 | 34199 ft | 445 kts | 114° |
| 2026-04-30 21:20 | 47.56884 | 19.28694 | 34435 ft | 445 kts | 115° |
| 2026-04-30 21:20 | 47.55358 | 19.32683 | 34620 ft | 445 kts | 115° |
| 2026-04-30 21:20 | 47.53846 | 19.36628 | 34808 ft | 446 kts | 115° |
| 2026-04-30 21:20 | 47.52314 | 19.40621 | 34988 ft | 446 kts | 115° |
| 2026-04-30 21:21 | 47.50778 | 19.44616 | 35162 ft | 447 kts | 115° |
| 2026-04-30 21:21 | 47.49234 | 19.48622 | 35334 ft | 448 kts | 115° |
| 2026-04-30 21:21 | 47.46138 | 19.56625 | 35674 ft | 449 kts | 116° |
| 2026-04-30 21:22 | 47.44579 | 19.60634 | 35849 ft | 450 kts | 116° |
| 2026-04-30 21:22 | 47.40068 | 19.72234 | 36294 ft | 451 kts | 116° |
| 2026-04-30 21:23 | 47.38507 | 19.76251 | 36449 ft | 452 kts | 116° |
| 2026-04-30 21:23 | 47.36959 | 19.80233 | 36596 ft | 452 kts | 116° |
| 2026-04-30 21:23 | 47.33820 | 19.88281 | 36897 ft | 453 kts | 116° |
| 2026-04-30 21:24 | 47.32241 | 19.92316 | 37039 ft | 453 kts | 116° |
| 2026-04-30 21:24 | 47.30661 | 19.96345 | 37167 ft | 454 kts | 116° |
| 2026-04-30 21:24 | 47.29079 | 20.00373 | 37323 ft | 454 kts | 116° |
| 2026-04-30 21:24 | 47.27494 | 20.04399 | 37365 ft | 453 kts | 116° |
| 2026-04-30 21:25 | 47.22756 | 20.16392 | 37355 ft | 453 kts | 117° |
| 2026-04-30 21:26 | 47.17997 | 20.28407 | 37357 ft | 454 kts | 117° |
| 2026-04-30 21:27 | 47.13211 | 20.40435 | 37360 ft | 455 kts | 117° |
| 2026-04-30 21:27 | 47.10006 | 20.48459 | 37367 ft | 455 kts | 117° |
| 2026-04-30 21:28 | 47.05210 | 20.60432 | 37374 ft | 456 kts | 117° |
| 2026-04-30 21:29 | 47.00366 | 20.72449 | 37375 ft | 456 kts | 118° |
| 2026-04-30 21:30 | 46.92260 | 20.92439 | 37368 ft | 457 kts | 118° |
| 2026-04-30 21:31 | 46.84140 | 21.12340 | 37362 ft | 457 kts | 118° |
| 2026-04-30 21:32 | 46.79230 | 21.24301 | 37365 ft | 458 kts | 118° |
| 2026-04-30 21:32 | 46.75950 | 21.32270 | 37359 ft | 458 kts | 118° |
| 2026-04-30 21:33 | 46.71011 | 21.44225 | 37354 ft | 458 kts | 118° |
| 2026-04-30 21:34 | 46.67744 | 21.52159 | 37360 ft | 458 kts | 117° |
| 2026-04-30 21:34 | 46.63235 | 21.64428 | 37337 ft | 458 kts | 115° |
| 2026-04-30 21:35 | 46.60284 | 21.72653 | 37340 ft | 459 kts | 115° |
| 2026-04-30 21:35 | 46.57263 | 21.80858 | 37342 ft | 459 kts | 116° |
| 2026-04-30 21:36 | 46.54220 | 21.88987 | 37342 ft | 460 kts | 116° |
| 2026-04-30 21:37 | 46.48109 | 22.05333 | 37349 ft | 460 kts | 116° |
| 2026-04-30 21:37 | 46.45068 | 22.13461 | 37352 ft | 461 kts | 116° |
| 2026-04-30 21:38 | 46.41990 | 22.21639 | 37358 ft | 462 kts | 117° |
| 2026-04-30 21:38 | 46.38898 | 22.29817 | 37368 ft | 462 kts | 117° |
| 2026-04-30 21:39 | 46.35824 | 22.37932 | 37366 ft | 462 kts | 117° |
| 2026-04-30 21:39 | 46.32725 | 22.46086 | 37375 ft | 463 kts | 117° |
| 2026-04-30 21:40 | 46.29614 | 22.54260 | 37378 ft | 463 kts | 117° |
| 2026-04-30 21:40 | 46.26520 | 22.62370 | 37379 ft | 463 kts | 117° |
| 2026-04-30 21:41 | 46.23393 | 22.70534 | 37379 ft | 463 kts | 117° |
| 2026-04-30 21:41 | 46.20257 | 22.78685 | 37382 ft | 463 kts | 117° |
| 2026-04-30 21:42 | 46.17128 | 22.86776 | 37382 ft | 463 kts | 117° |
| 2026-04-30 21:42 | 46.13982 | 22.94903 | 37380 ft | 464 kts | 117° |
| 2026-04-30 21:43 | 46.10855 | 23.02994 | 37375 ft | 464 kts | 117° |
| 2026-04-30 21:43 | 46.07684 | 23.11150 | 37373 ft | 465 kts | 117° |
| 2026-04-30 21:44 | 46.04513 | 23.19273 | 37368 ft | 465 kts | 118° |
| 2026-04-30 21:44 | 46.01349 | 23.27364 | 37374 ft | 466 kts | 118° |
| 2026-04-30 21:45 | 45.98162 | 23.35494 | 37375 ft | 466 kts | 118° |
| 2026-04-30 21:45 | 45.94977 | 23.43570 | 37374 ft | 467 kts | 118° |
| 2026-04-30 21:46 | 45.91772 | 23.51681 | 37379 ft | 467 kts | 118° |
| 2026-04-30 21:46 | 45.88555 | 23.59828 | 37377 ft | 467 kts | 118° |
| 2026-04-30 21:47 | 45.85342 | 23.67915 | 37358 ft | 468 kts | 118° |
| 2026-04-30 21:47 | 45.82107 | 23.76028 | 37349 ft | 468 kts | 118° |
| 2026-04-30 21:48 | 45.78888 | 23.84089 | 37346 ft | 469 kts | 118° |
| 2026-04-30 21:48 | 45.75634 | 23.92211 | 37341 ft | 469 kts | 119° |
| 2026-04-30 21:49 | 45.72375 | 24.00331 | 37340 ft | 470 kts | 119° |
| 2026-04-30 21:49 | 45.69119 | 24.08429 | 37337 ft | 471 kts | 119° |
| 2026-04-30 21:50 | 45.65832 | 24.16560 | 37351 ft | 471 kts | 119° |
| 2026-04-30 21:50 | 45.62544 | 24.24647 | 37359 ft | 472 kts | 119° |
| 2026-04-30 21:51 | 45.59237 | 24.32770 | 37370 ft | 472 kts | 119° |
| 2026-04-30 21:51 | 45.55941 | 24.40873 | 37377 ft | 472 kts | 120° |
| 2026-04-30 21:52 | 45.52651 | 24.48930 | 37377 ft | 472 kts | 120° |
| 2026-04-30 21:52 | 45.49329 | 24.57034 | 37380 ft | 472 kts | 120° |
| 2026-04-30 21:53 | 45.46023 | 24.65083 | 37379 ft | 472 kts | 120° |
| 2026-04-30 21:53 | 45.42700 | 24.73149 | 37375 ft | 472 kts | 120° |
| 2026-04-30 21:54 | 45.39354 | 24.81223 | 37376 ft | 473 kts | 120° |
| 2026-04-30 21:54 | 45.36022 | 24.89241 | 37385 ft | 473 kts | 120° |
| 2026-04-30 21:55 | 45.32664 | 24.97325 | 37392 ft | 473 kts | 120° |
| 2026-04-30 21:55 | 45.29319 | 25.05332 | 37394 ft | 474 kts | 121° |
| 2026-04-30 21:56 | 45.25944 | 25.13384 | 37386 ft | 474 kts | 121° |
| 2026-04-30 21:56 | 45.22576 | 25.21433 | 37392 ft | 474 kts | 121° |
| 2026-04-30 21:57 | 45.19214 | 25.29452 | 37389 ft | 474 kts | 121° |
| 2026-04-30 21:57 | 45.15828 | 25.37475 | 37385 ft | 474 kts | 121° |
| 2026-04-30 21:58 | 45.12448 | 25.45448 | 37381 ft | 474 kts | 122° |
| 2026-04-30 21:58 | 45.09060 | 25.53416 | 37379 ft | 474 kts | 122° |
| 2026-04-30 21:59 | 45.05658 | 25.61408 | 37374 ft | 474 kts | 122° |
| 2026-04-30 22:00 | 45.00553 | 25.73359 | 37366 ft | 474 kts | 122° |
| 2026-04-30 22:00 | 44.95417 | 25.85360 | 37357 ft | 474 kts | 122° |
| 2026-04-30 22:01 | 44.92007 | 25.93278 | 37345 ft | 475 kts | 122° |
| 2026-04-30 22:01 | 44.88907 | 26.00449 | 37349 ft | 475 kts | 122° |
| 2026-04-30 22:02 | 44.85485 | 26.08360 | 37347 ft | 475 kts | 123° |
| 2026-04-30 22:02 | 44.82034 | 26.16332 | 37353 ft | 476 kts | 123° |
| 2026-04-30 22:03 | 44.78567 | 26.24303 | 37345 ft | 476 kts | 123° |
| 2026-04-30 22:03 | 44.75111 | 26.32213 | 37341 ft | 477 kts | 123° |
| 2026-04-30 22:04 | 44.71625 | 26.40176 | 37338 ft | 477 kts | 123° |
| 2026-04-30 22:05 | 44.66413 | 26.52056 | 37327 ft | 477 kts | 123° |
| 2026-04-30 22:05 | 44.62926 | 26.59974 | 37319 ft | 477 kts | 123° |
| 2026-04-30 22:06 | 44.59421 | 26.67910 | 37321 ft | 478 kts | 124° |
| 2026-04-30 22:06 | 44.54152 | 26.79792 | 37319 ft | 479 kts | 124° |
| 2026-04-30 22:07 | 44.50625 | 26.87698 | 37327 ft | 479 kts | 124° |
| 2026-04-30 22:07 | 44.47680 | 26.94290 | 37323 ft | 480 kts | 124° |
| 2026-04-30 22:08 | 44.44141 | 27.02223 | 37327 ft | 480 kts | 124° |
| 2026-04-30 22:08 | 44.40593 | 27.10142 | 37334 ft | 480 kts | 124° |
| 2026-04-30 22:09 | 44.37033 | 27.18069 | 37329 ft | 480 kts | 124° |
| 2026-04-30 22:09 | 44.33494 | 27.25931 | 37321 ft | 480 kts | 125° |
| 2026-04-30 22:10 | 44.29921 | 27.33831 | 37316 ft | 480 kts | 125° |
| 2026-04-30 22:10 | 44.26337 | 27.41724 | 37311 ft | 481 kts | 125° |
| 2026-04-30 22:11 | 44.20973 | 27.53513 | 37307 ft | 481 kts | 125° |
| 2026-04-30 22:12 | 44.17388 | 27.61364 | 37309 ft | 481 kts | 126° |
| 2026-04-30 22:12 | 44.13782 | 27.69243 | 37307 ft | 482 kts | 126° |
| 2026-04-30 22:13 | 44.10167 | 27.77120 | 37303 ft | 482 kts | 126° |
| 2026-04-30 22:13 | 44.06571 | 27.84947 | 37303 ft | 482 kts | 126° |
| 2026-04-30 22:14 | 44.02938 | 27.92808 | 37302 ft | 482 kts | 126° |
| 2026-04-30 22:14 | 43.99306 | 28.00654 | 37298 ft | 483 kts | 126° |
| 2026-04-30 22:15 | 43.95667 | 28.08511 | 37297 ft | 483 kts | 126° |
| 2026-04-30 22:15 | 43.92045 | 28.16293 | 37289 ft | 483 kts | 126° |
| 2026-04-30 22:16 | 43.88382 | 28.24139 | 37288 ft | 483 kts | 127° |
| 2026-04-30 22:17 | 43.81073 | 28.39759 | 37276 ft | 483 kts | 127° |
| 2026-04-30 22:17 | 43.75582 | 28.51435 | 37270 ft | 483 kts | 127° |
| 2026-04-30 22:18 | 43.70071 | 28.63088 | 37262 ft | 484 kts | 127° |
| 2026-04-30 22:19 | 43.64528 | 28.74780 | 37255 ft | 485 kts | 127° |
| 2026-04-30 22:20 | 43.58956 | 28.86474 | 37249 ft | 485 kts | 127° |
| 2026-04-30 22:20 | 43.53394 | 28.98123 | 37243 ft | 486 kts | 127° |
| 2026-04-30 22:21 | 43.49689 | 29.05854 | 37240 ft | 486 kts | 127° |
| 2026-04-30 22:21 | 43.45946 | 29.13635 | 37231 ft | 486 kts | 128° |
| 2026-04-30 22:22 | 43.42222 | 29.21352 | 37232 ft | 486 kts | 128° |
| 2026-04-30 22:22 | 43.38466 | 29.29111 | 37229 ft | 486 kts | 128° |
| 2026-04-30 22:23 | 43.34730 | 29.36825 | 37229 ft | 486 kts | 128° |
| 2026-04-30 22:23 | 43.30970 | 29.44574 | 37219 ft | 486 kts | 128° |
| 2026-04-30 22:24 | 43.27226 | 29.52265 | 37217 ft | 486 kts | 128° |
| 2026-04-30 22:24 | 43.23475 | 29.59949 | 37209 ft | 486 kts | 128° |
| 2026-04-30 22:25 | 43.19698 | 29.67647 | 37205 ft | 486 kts | 128° |
| 2026-04-30 22:25 | 43.15913 | 29.75367 | 37196 ft | 486 kts | 128° |
| 2026-04-30 22:26 | 43.10252 | 29.86869 | 37189 ft | 487 kts | 129° |
| 2026-04-30 22:27 | 43.06446 | 29.94555 | 37186 ft | 487 kts | 129° |
| 2026-04-30 22:27 | 43.00753 | 30.06027 | 37182 ft | 487 kts | 129° |
| 2026-04-30 22:28 | 42.95039 | 30.17508 | 37171 ft | 487 kts | 129° |
| 2026-04-30 22:29 | 42.87396 | 30.32801 | 37158 ft | 487 kts | 129° |
| 2026-04-30 22:31 | 42.74499 | 30.59896 | 37140 ft | 495 kts | 113° |
| 2026-04-30 22:32 | 42.72472 | 30.73670 | 37136 ft | 499 kts | 99° |
| 2026-04-30 22:32 | 42.71532 | 30.83031 | 37134 ft | 499 kts | 99° |
| 2026-04-30 22:33 | 42.69112 | 31.06403 | 37124 ft | 499 kts | 99° |
| 2026-04-30 22:35 | 42.66649 | 31.29745 | 37123 ft | 499 kts | 99° |
| 2026-04-30 22:36 | 42.64141 | 31.53076 | 37119 ft | 499 kts | 99° |
| 2026-04-30 22:37 | 42.62101 | 31.71701 | 37100 ft | 499 kts | 100° |
| 2026-04-30 22:38 | 42.60027 | 31.90360 | 37091 ft | 499 kts | 100° |
| 2026-04-30 22:39 | 42.58463 | 32.04278 | 37090 ft | 499 kts | 100° |
| 2026-04-30 22:40 | 42.55293 | 32.32177 | 37071 ft | 499 kts | 100° |
| 2026-04-30 22:41 | 42.52566 | 32.55465 | 37066 ft | 500 kts | 100° |
| 2026-04-30 22:43 | 42.49245 | 32.83319 | 37068 ft | 500 kts | 100° |
| 2026-04-30 22:44 | 42.46990 | 33.01919 | 37061 ft | 499 kts | 100° |
| 2026-04-30 22:45 | 42.43562 | 33.29684 | 37056 ft | 499 kts | 101° |
| 2026-04-30 22:47 | 42.40063 | 33.57435 | 37054 ft | 499 kts | 101° |
| 2026-04-30 22:48 | 42.37703 | 33.75895 | 37044 ft | 499 kts | 101° |
| 2026-04-30 22:49 | 42.34099 | 34.03578 | 37042 ft | 498 kts | 101° |
| 2026-04-30 22:51 | 42.30453 | 34.31179 | 37044 ft | 497 kts | 101° |
| 2026-04-30 22:52 | 42.28603 | 34.44987 | 37036 ft | 497 kts | 101° |
| 2026-04-30 22:53 | 42.26111 | 34.63304 | 37039 ft | 496 kts | 101° |
| 2026-04-30 22:53 | 42.24208 | 34.77073 | 37039 ft | 496 kts | 101° |
| 2026-04-30 22:55 | 42.21238 | 34.98431 | 37042 ft | 496 kts | 101° |
| 2026-04-30 22:56 | 42.18662 | 35.16655 | 37049 ft | 496 kts | 101° |
| 2026-04-30 22:57 | 42.15394 | 35.39497 | 37049 ft | 496 kts | 102° |
| 2026-04-30 22:58 | 42.12759 | 35.57720 | 37054 ft | 495 kts | 102° |
| 2026-04-30 22:59 | 42.08758 | 35.84976 | 37050 ft | 495 kts | 102° |